Elisa — V70X6 — position and weather

sailwx.info

Track history (hours):
 
Tides and Currents Weather Stations Pressure Air Temp Water Temp Dewpoint Dewpoint Depression Visibility Wind Speed Wind Dir Waves Ship Positions

Elisa

Last reported at 2017-Nov-07 16:21 UTC. Time now 2017-Nov-20 12:00 UTC.
Position N 32°37' W 117°16'.
Warning: this ship's position is 12 days out of date.

Length 46 m; draft 2.6 m.

Type: Pleasure craft. MMSI: 538070502.

Date/timePositionNaut miles runAvg speedWind from/ knotsBaromVisibWave heightAir tempDewpointWater temp
2017-Nov-07 16:21N 32°37' W 117°16'511.8
2017-Nov-07 15:56N 32°40' W 117°20'4 9.8
2017-Nov-07 15:30N 32°43' W 117°23'5 9.8
2017-Nov-07 15:00N 32°47' W 117°27'5 9.3
2017-Nov-07 14:30N 32°50' W 117°31'5 9.2
2017-Nov-07 14:00N 32°53' W 117°35'5 9.2
2017-Nov-07 13:30N 32°56' W 117°39'5 9.6
2017-Nov-07 13:00N 32°60' W 117°43'5 9.7
2017-Nov-07 12:30N 33°03' W 117°47'5 9.7
2017-Nov-07 12:00N 33°07' W 117°51'5 9.5
2017-Nov-07 11:30N 33°10' W 117°55'5 9.6
2017-Nov-07 10:59N 33°13' W 117°60'5 9.7
2017-Nov-07 10:30N 33°17' W 118°04'56 9.5
2017-Nov-07 04:34N 33°53' W 118°56'210.0
2017-Nov-07 04:22N 33°54' W 118°58'410.1
2017-Nov-07 04:00N 33°55' W 119°02'510.0
2017-Nov-07 03:30N 33°58' W 119°07'510.1
2017-Nov-07 03:00N 34°00' W 119°12'510.7
2017-Nov-07 02:30N 34°03' W 119°18'611.4
2017-Nov-07 02:00N 34°04' W 119°25'611.3
2017-Nov-07 01:30N 34°06' W 119°31'511.1
2017-Nov-07 01:00N 34°07' W 119°38'611.1
2017-Nov-07 00:30N 34°09' W 119°44'511.1
2017-Nov-07 00:00N 34°10' W 119°51'611.5
2017-Nov-06 23:30N 34°12' W 119°57'611.1
2017-Nov-06 23:00N 34°13' W 120°04'511.0
2017-Nov-06 22:30N 34°15' W 120°10'610.8
2017-Nov-06 21:55N 34°16' W 120°18'410.5
2017-Nov-06 21:30N 34°17' W 120°23'510.8
2017-Nov-06 21:00N 34°18' W 120°29'611.0
2017-Nov-06 20:30N 34°20' W 120°36'20511.0
2017-Nov-06 01:49N 37°17' W 122°43'411.6
2017-Nov-06 01:29N 37°20' W 122°43'611.7
2017-Nov-06 01:00N 37°26' W 122°43'611.6
2017-Nov-06 00:30N 37°32' W 122°43'1311.2
2017-Nov-05 23:19N 37°45' W 122°39'512.4
2017-Nov-05 22:57N 37°47' W 122°34'613.5
2017-Nov-05 22:30N 37°50' W 122°28'2 4.0
2017-Nov-05 22:00N 37°52' W 122°29'0 0.0
2017-Nov-05 21:30N 37°52' W 122°29'0 0.0
2017-Nov-05 21:00N 37°52' W 122°29'0 0.0
2017-Nov-05 20:30N 37°52' W 122°29'0 0.0
2017-Nov-05 20:00N 37°52' W 122°29'0 0.0
2017-Nov-05 19:30N 37°52' W 122°29'0 0.0
2017-Nov-05 19:00N 37°52' W 122°29'0 0.0
2017-Nov-05 18:30N 37°52' W 122°29'0 0.0
2017-Nov-05 18:00N 37°52' W 122°29'0 0.0
2017-Nov-05 17:30N 37°52' W 122°29'0 0.0
2017-Nov-05 17:00N 37°52' W 122°29'0 0.0
2017-Nov-05 16:30N 37°52' W 122°29'0 0.0
2017-Nov-05 16:00N 37°52' W 122°29'0 0.0
2017-Nov-05 15:30N 37°52' W 122°29'0 0.0
2017-Nov-05 15:00N 37°52' W 122°29'0 0.0
2017-Nov-05 14:30N 37°52' W 122°29'0 0.0
2017-Nov-05 14:00N 37°52' W 122°29'0 0.0
2017-Nov-05 13:30N 37°52' W 122°29'0 0.0
2017-Nov-05 13:00N 37°52' W 122°29'0 0.0
2017-Nov-05 12:30N 37°52' W 122°29'0 0.0
2017-Nov-05 12:00N 37°52' W 122°29'0 0.0
2017-Nov-05 11:30N 37°52' W 122°29'0 0.0
2017-Nov-05 11:00N 37°52' W 122°29'0 0.0
2017-Nov-05 10:30N 37°52' W 122°29'0 0.0
2017-Nov-05 10:00N 37°52' W 122°29'0 0.0
2017-Nov-05 09:30N 37°52' W 122°29'0 0.0
2017-Nov-05 09:00N 37°52' W 122°29'0 0.0
2017-Nov-05 08:30N 37°52' W 122°29'0 0.0
2017-Nov-05 08:00N 37°52' W 122°29'0 0.0
2017-Nov-05 07:30N 37°52' W 122°29'0 0.0
2017-Nov-05 07:00N 37°52' W 122°29'0 0.0
2017-Nov-05 06:30N 37°52' W 122°29'0 0.0
2017-Nov-05 06:00N 37°52' W 122°29'0 0.0
2017-Nov-05 05:30N 37°52' W 122°29'0 0.0
2017-Nov-05 05:00N 37°52' W 122°29'0 0.0
2017-Nov-05 04:30N 37°52' W 122°29'0 0.0
2017-Nov-05 04:00N 37°52' W 122°29'0 0.0
2017-Nov-05 03:30N 37°52' W 122°29'0 0.0
2017-Nov-05 03:00N 37°52' W 122°29'0 0.0
2017-Nov-05 02:30N 37°52' W 122°29'0 0.0
2017-Nov-05 02:00N 37°52' W 122°29'0 0.0
2017-Nov-05 01:30N 37°52' W 122°29'0 0.0
2017-Nov-05 01:00N 37°52' W 122°29'0 0.0
2017-Nov-05 00:30N 37°52' W 122°29'0 0.0
2017-Nov-05 00:00N 37°52' W 122°29'0 0.0
2017-Nov-04 23:30N 37°52' W 122°29'0 0.0
2017-Nov-04 23:00N 37°52' W 122°29'0 0.0
2017-Nov-04 22:30N 37°52' W 122°29'0 0.0
2017-Nov-04 22:00N 37°52' W 122°29'0 0.0
2017-Nov-04 21:30N 37°52' W 122°29'0 0.0
2017-Nov-04 21:00N 37°52' W 122°29'0 0.0
2017-Nov-04 20:30N 37°52' W 122°29'0 0.0
2017-Nov-04 20:00N 37°52' W 122°29'0 0.0
2017-Nov-04 19:30N 37°52' W 122°29'0 0.0
2017-Nov-04 19:00N 37°52' W 122°29'0 0.0
2017-Nov-04 18:30N 37°52' W 122°29'0 0.0
2017-Nov-04 18:00N 37°52' W 122°29'0 0.0
2017-Nov-04 17:30N 37°52' W 122°29'0 0.0
2017-Nov-04 17:00N 37°52' W 122°29'0 0.0
2017-Nov-04 16:30N 37°52' W 122°29'0 0.0
2017-Nov-04 16:00N 37°52' W 122°29'0 0.0
2017-Nov-04 15:27N 37°52' W 122°29'0 0.0
2017-Nov-04 15:00N 37°52' W 122°29'0 0.0
2017-Nov-04 14:30N 37°52' W 122°29'0 0.0
2017-Nov-04 14:00N 37°52' W 122°29'0 0.0
2017-Nov-04 13:30N 37°52' W 122°29'0 0.0
2017-Nov-04 13:00N 37°52' W 122°29'0 0.0
2017-Nov-04 12:30N 37°52' W 122°29'0 0.0
2017-Nov-04 12:00N 37°52' W 122°29'0 0.0
2017-Nov-04 11:30N 37°52' W 122°29'0 0.0
2017-Nov-04 11:00N 37°52' W 122°29'0 0.0
2017-Nov-04 10:30N 37°52' W 122°29'0 0.0
2017-Nov-04 10:00N 37°52' W 122°29'0 0.0
2017-Nov-04 09:30N 37°52' W 122°29'0 0.0
2017-Nov-04 09:00N 37°52' W 122°29'0 0.0
2017-Nov-04 08:30N 37°52' W 122°29'0 0.0
2017-Nov-04 08:00N 37°52' W 122°29'0 0.0
2017-Nov-04 07:30N 37°52' W 122°29'0 0.0
2017-Nov-04 07:00N 37°52' W 122°29'0 0.0
2017-Nov-04 06:30N 37°52' W 122°29'0 0.0
2017-Nov-04 06:00N 37°52' W 122°29'0 0.0
2017-Nov-04 05:30N 37°52' W 122°29'0 0.0
2017-Nov-04 05:00N 37°52' W 122°29'0 0.0
2017-Nov-04 04:30N 37°52' W 122°29'0 0.0
2017-Nov-04 04:00N 37°52' W 122°29'0 0.0
2017-Nov-04 03:30N 37°52' W 122°29'0 0.0
2017-Nov-04 03:00N 37°52' W 122°29'0 0.0
2017-Nov-04 02:30N 37°52' W 122°29'0 0.0
2017-Nov-04 02:00N 37°52' W 122°29'0 0.0
2017-Nov-04 01:30N 37°52' W 122°29'0 0.0
2017-Nov-04 01:00N 37°52' W 122°29'0 0.0
2017-Nov-04 00:30N 37°52' W 122°29'0 0.0
2017-Nov-04 00:00N 37°52' W 122°29'0 0.0
2017-Nov-03 23:30N 37°52' W 122°29'0 0.0
2017-Nov-03 23:00N 37°52' W 122°29'0 0.0
2017-Nov-03 22:30N 37°52' W 122°29'0 0.0
2017-Nov-03 22:00N 37°52' W 122°29'0 0.0
2017-Nov-03 21:30N 37°52' W 122°29'0 0.0
2017-Nov-03 21:00N 37°52' W 122°29'0 0.0
2017-Nov-03 20:30N 37°52' W 122°29'0 0.0
2017-Nov-03 20:00N 37°52' W 122°29'0 0.0
2017-Nov-03 19:30N 37°52' W 122°29'0 0.0
2017-Nov-03 19:00N 37°52' W 122°29'0 0.0
2017-Nov-03 18:30N 37°52' W 122°29'0 0.0
2017-Nov-03 18:00N 37°52' W 122°29'0 0.0
2017-Nov-03 17:30N 37°52' W 122°29'0 0.0
2017-Nov-03 17:00N 37°52' W 122°29'0 0.0
2017-Nov-03 16:30N 37°52' W 122°29'0 0.0
2017-Nov-03 16:00N 37°52' W 122°29'0 0.0
2017-Nov-03 15:30N 37°52' W 122°29'0 0.0
2017-Nov-03 15:00N 37°52' W 122°29'0 0.0
2017-Nov-03 14:30N 37°52' W 122°29'0 0.0
2017-Nov-03 14:00N 37°52' W 122°29'0 0.0
2017-Nov-03 13:30N 37°52' W 122°29'0 0.0
2017-Nov-03 13:00N 37°52' W 122°29'0 0.0
2017-Nov-03 12:30N 37°52' W 122°29'0 0.0
2017-Nov-03 12:00N 37°52' W 122°29'0 0.0
2017-Nov-03 11:30N 37°52' W 122°29'0 0.0
2017-Nov-03 11:00N 37°52' W 122°29'0 0.0
2017-Nov-03 10:27N 37°52' W 122°29'0 0.0
2017-Nov-03 10:00N 37°52' W 122°29'0 0.0
2017-Nov-03 09:30N 37°52' W 122°29'0 0.0
2017-Nov-03 09:00N 37°52' W 122°29'0 0.0
2017-Nov-03 08:30N 37°52' W 122°29'0 0.0
2017-Nov-03 08:00N 37°52' W 122°29'0 0.0
2017-Nov-03 07:30N 37°52' W 122°29'0 0.0
2017-Nov-03 07:00N 37°52' W 122°29'0 0.0
2017-Nov-03 06:30N 37°52' W 122°29'0 0.0
2017-Nov-03 06:00N 37°52' W 122°29'0 0.0
2017-Nov-03 05:30N 37°52' W 122°29'0 0.0
2017-Nov-03 05:00N 37°52' W 122°29'0 0.0
2017-Nov-03 04:30N 37°52' W 122°29'0 0.0
2017-Nov-03 04:00N 37°52' W 122°29'0 0.0
2017-Nov-03 03:30N 37°52' W 122°29'0 0.0
2017-Nov-03 03:00N 37°52' W 122°29'0 0.0
2017-Nov-03 02:30N 37°52' W 122°29'0 0.0
2017-Nov-03 02:00N 37°52' W 122°29'0 0.0
2017-Nov-03 01:30N 37°52' W 122°29'0 0.0
2017-Nov-03 01:00N 37°52' W 122°29'0 0.0
2017-Nov-03 00:30N 37°52' W 122°29'0 0.0
2017-Nov-03 00:00N 37°52' W 122°29'0 0.0
2017-Nov-02 23:30N 37°52' W 122°29'0 0.0
2017-Nov-02 23:00N 37°52' W 122°29'0 0.0
2017-Nov-02 22:30N 37°52' W 122°29'0 0.0
2017-Nov-02 22:00N 37°52' W 122°29'0 0.0
2017-Nov-02 21:30N 37°52' W 122°29'0 0.0
2017-Nov-02 21:00N 37°52' W 122°29'0 0.0
2017-Nov-02 20:30N 37°52' W 122°29'0 0.0
2017-Nov-02 20:00N 37°52' W 122°29'0 0.0
2017-Nov-02 19:30N 37°52' W 122°29'0 0.0
2017-Nov-02 19:00N 37°52' W 122°29'0 0.0
2017-Nov-02 18:30N 37°52' W 122°29'0 0.0
2017-Nov-02 18:00N 37°52' W 122°29'0 0.0
2017-Nov-02 17:30N 37°52' W 122°29'0 0.0
2017-Nov-02 17:00N 37°52' W 122°29'0 0.0
2017-Nov-02 16:30N 37°52' W 122°29'0 0.0
2017-Nov-02 16:00N 37°52' W 122°29'0 0.0
2017-Nov-02 15:30N 37°52' W 122°29'0 0.0
2017-Nov-02 14:57N 37°52' W 122°29'0 0.0
2017-Nov-02 14:30N 37°52' W 122°29'0 0.0
2017-Nov-02 14:00N 37°52' W 122°29'0 0.0
2017-Nov-02 13:30N 37°52' W 122°29'0 0.0
2017-Nov-02 13:00N 37°52' W 122°29'0 0.0
2017-Nov-02 12:30N 37°52' W 122°29'0 0.0
2017-Nov-02 12:00N 37°52' W 122°29'0 0.0
2017-Nov-02 11:30N 37°52' W 122°29'0 0.0
2017-Nov-02 11:00N 37°52' W 122°29'0 0.0
2017-Nov-02 10:30N 37°52' W 122°29'0 0.0
2017-Nov-02 10:00N 37°52' W 122°29'0 0.0
2017-Nov-02 09:30N 37°52' W 122°29'0 0.0
2017-Nov-02 09:00N 37°52' W 122°29'0 0.0
2017-Nov-02 08:30N 37°52' W 122°29'0 0.0
2017-Nov-02 08:00N 37°52' W 122°29'0 0.0
2017-Nov-02 07:30N 37°52' W 122°29'0 0.0
2017-Nov-02 07:00N 37°52' W 122°29'0 0.0
2017-Nov-02 06:30N 37°52' W 122°29'0 0.0
2017-Nov-02 06:00N 37°52' W 122°29'0 0.0
2017-Nov-02 05:30N 37°52' W 122°29'0 0.0
2017-Nov-02 05:00N 37°52' W 122°29'0 0.0
2017-Nov-02 04:30N 37°52' W 122°29'0 0.0
2017-Nov-02 04:00N 37°52' W 122°29'0 0.0
2017-Nov-02 03:30N 37°52' W 122°29'0 0.0
2017-Nov-02 03:00N 37°52' W 122°29'0 0.0
2017-Nov-02 02:30N 37°52' W 122°29'0 0.0
2017-Nov-02 02:00N 37°52' W 122°29'0 0.0
2017-Nov-02 01:30N 37°52' W 122°29'0 0.0
2017-Nov-02 01:00N 37°52' W 122°29'0 0.0
2017-Nov-02 00:30N 37°52' W 122°29'0 0.0
2017-Nov-02 00:00N 37°52' W 122°29'0 0.0
2017-Nov-01 23:30N 37°52' W 122°29'0 0.0
2017-Nov-01 23:00N 37°52' W 122°29'0 0.0
2017-Nov-01 22:30N 37°52' W 122°29'0 0.0
2017-Nov-01 22:00N 37°52' W 122°29'0 0.0
2017-Nov-01 21:30N 37°52' W 122°29'0 0.0
2017-Nov-01 21:00N 37°52' W 122°29'0 0.0
2017-Nov-01 20:30N 37°52' W 122°29'0 0.0
2017-Nov-01 20:00N 37°52' W 122°29'0 0.0
2017-Nov-01 19:30N 37°52' W 122°29'0 0.0
2017-Nov-01 19:00N 37°52' W 122°29'0 0.0
2017-Nov-01 18:30N 37°52' W 122°29'0 0.0
2017-Nov-01 02:00N 37°52' W 122°29'0 0.0
2017-Nov-01 01:30N 37°52' W 122°29'0 0.0
2017-Nov-01 01:00N 37°52' W 122°29'0 0.0
2017-Nov-01 00:30N 37°52' W 122°29'0 0.0
2017-Nov-01 00:00N 37°52' W 122°29'0 0.0
2017-Oct-31 23:30N 37°52' W 122°29'0 0.0
2017-Oct-31 23:00N 37°52' W 122°29'0 0.0
2017-Oct-31 22:30N 37°52' W 122°29'0 0.0
2017-Oct-31 21:57N 37°52' W 122°29'0 0.0
2017-Oct-31 21:30N 37°52' W 122°29'0 0.0
2017-Oct-31 21:00N 37°52' W 122°29'0 0.0
2017-Oct-31 20:30N 37°52' W 122°29'0 0.0
2017-Oct-31 20:00N 37°52' W 122°29'0 0.0
2017-Oct-31 19:30N 37°52' W 122°29'0 0.0
2017-Oct-31 19:00N 37°52' W 122°29'0 0.0
2017-Oct-31 18:30N 37°52' W 122°29'0 0.0
2017-Oct-31 18:00N 37°52' W 122°29'0 0.0
2017-Oct-31 17:30N 37°52' W 122°29'0 0.0
2017-Oct-31 17:00N 37°52' W 122°29'0 0.0
2017-Oct-31 16:30N 37°52' W 122°29'0 0.0
2017-Oct-31 16:00N 37°52' W 122°29'0 0.0
2017-Oct-31 15:30N 37°52' W 122°29'0 0.0
2017-Oct-31 15:00N 37°52' W 122°29'0 0.0
2017-Oct-31 14:30N 37°52' W 122°29'0 0.0
2017-Oct-31 14:00N 37°52' W 122°29'0 0.0
2017-Oct-31 13:30N 37°52' W 122°29'0 0.0
2017-Oct-31 13:00N 37°52' W 122°29'0 0.0
2017-Oct-31 12:30N 37°52' W 122°29'0 0.0
2017-Oct-31 12:00N 37°52' W 122°29'0 0.0
2017-Oct-31 11:30N 37°52' W 122°29'0 0.0
2017-Oct-31 11:00N 37°52' W 122°29'0 0.0
2017-Oct-31 10:30N 37°52' W 122°29'0 0.0
2017-Oct-31 10:00N 37°52' W 122°29'0 0.0
2017-Oct-31 09:30N 37°52' W 122°29'0 0.0
2017-Oct-31 09:00N 37°52' W 122°29'0 0.0
2017-Oct-31 08:30N 37°52' W 122°29'0 0.0
2017-Oct-31 08:00N 37°52' W 122°29'0 0.0
2017-Oct-31 07:30N 37°52' W 122°29'0 0.0
2017-Oct-31 07:00N 37°52' W 122°29'0 0.0
2017-Oct-31 06:30N 37°52' W 122°29'0 0.0
2017-Oct-31 06:00N 37°52' W 122°29'0 0.0
2017-Oct-31 05:30N 37°52' W 122°29'0 0.0
2017-Oct-31 05:00N 37°52' W 122°29'0 0.0
2017-Oct-31 04:30N 37°52' W 122°29'0 0.0
2017-Oct-31 04:00N 37°52' W 122°29'0 0.0
2017-Oct-31 03:30N 37°52' W 122°29'0 0.0
2017-Oct-31 03:00N 37°52' W 122°29'0 0.0
2017-Oct-31 02:30N 37°52' W 122°29'0 0.0
2017-Oct-31 02:00N 37°52' W 122°29'0 0.0
2017-Oct-31 01:30N 37°52' W 122°29'0 0.0
2017-Oct-31 01:00N 37°52' W 122°29'0 0.0
2017-Oct-31 00:30N 37°52' W 122°29'0 0.0
2017-Oct-31 00:00N 37°52' W 122°29'0 0.0
2017-Oct-30 23:30N 37°52' W 122°29'0 0.0
2017-Oct-30 23:00N 37°52' W 122°29'0 0.0
2017-Oct-30 22:30N 37°52' W 122°29'0 0.0
2017-Oct-30 22:00N 37°52' W 122°29'0 0.0
2017-Oct-30 21:30N 37°52' W 122°29'0 0.0
2017-Oct-30 21:00N 37°52' W 122°29'0 0.0
2017-Oct-30 20:30N 37°52' W 122°29'0 0.0
2017-Oct-30 20:00N 37°52' W 122°29'0 0.0
2017-Oct-30 19:30N 37°52' W 122°29'0 0.0
2017-Oct-30 19:00N 37°52' W 122°29'0 0.0
2017-Oct-30 18:30N 37°52' W 122°29'0 0.0
2017-Oct-30 18:00N 37°52' W 122°29'0 0.0
2017-Oct-30 17:30N 37°52' W 122°29'0 0.0
2017-Oct-30 17:00N 37°52' W 122°29'0 0.0
2017-Oct-30 16:30N 37°52' W 122°29'0 0.0
2017-Oct-30 16:00N 37°52' W 122°29'0 0.0
2017-Oct-30 15:30N 37°52' W 122°29'0 0.0
2017-Oct-30 15:00N 37°52' W 122°29'0 0.0
2017-Oct-30 14:00N 37°52' W 122°29'0 0.0
2017-Oct-30 13:30N 37°52' W 122°29'0 0.0
2017-Oct-30 13:00N 37°52' W 122°29'0 0.0
2017-Oct-30 12:30N 37°52' W 122°29'0 0.0
2017-Oct-30 12:00N 37°52' W 122°29'0 0.0
2017-Oct-30 11:30N 37°52' W 122°29'0 0.0
2017-Oct-30 11:00N 37°52' W 122°29'0 0.0
2017-Oct-30 10:30N 37°52' W 122°29'0 0.0
2017-Oct-30 09:57N 37°52' W 122°29'0 0.0
2017-Oct-30 09:30N 37°52' W 122°29'0 0.0
2017-Oct-30 09:00N 37°52' W 122°29'0 0.0
2017-Oct-30 08:30N 37°52' W 122°29'0 0.0
2017-Oct-30 08:00N 37°52' W 122°29'0 0.0
2017-Oct-30 07:30N 37°52' W 122°29'0 0.0
2017-Oct-30 07:00N 37°52' W 122°29'0 0.0
2017-Oct-30 06:30N 37°52' W 122°29'0 0.0
2017-Oct-30 06:00N 37°52' W 122°29'0 0.0
2017-Oct-30 05:30N 37°52' W 122°29'0 0.0
2017-Oct-30 05:00N 37°52' W 122°29'0 0.0
2017-Oct-30 04:30N 37°52' W 122°29'0 0.0
2017-Oct-30 04:00N 37°52' W 122°29'0 0.0
2017-Oct-30 03:30N 37°52' W 122°29'0 0.0
2017-Oct-30 03:00N 37°52' W 122°29'0 0.0
2017-Oct-30 02:30N 37°52' W 122°29'0 0.0
2017-Oct-30 02:00N 37°52' W 122°29'0 0.0
2017-Oct-30 01:30N 37°52' W 122°29'0 0.0
2017-Oct-30 01:00N 37°52' W 122°29'0 0.0
2017-Oct-30 00:27N 37°52' W 122°29'0 0.0
2017-Oct-30 00:00N 37°52' W 122°29'0 0.0
2017-Oct-29 23:30N 37°52' W 122°29'0 0.0
2017-Oct-29 23:00N 37°52' W 122°29'0 0.0
2017-Oct-29 22:30N 37°52' W 122°29'0 0.0
2017-Oct-29 22:00N 37°52' W 122°29'0 0.0
2017-Oct-29 21:30N 37°52' W 122°29'0 0.0
2017-Oct-29 21:00N 37°52' W 122°29'0 0.0
2017-Oct-29 20:30N 37°52' W 122°29'0 0.0
2017-Oct-29 20:00N 37°52' W 122°29'0 0.0
2017-Oct-29 19:30N 37°52' W 122°29'0 0.0
2017-Oct-29 19:00N 37°52' W 122°29'0 0.0
2017-Oct-29 18:30N 37°52' W 122°29'0 0.0
2017-Oct-29 18:00N 37°52' W 122°29'0 0.0
2017-Oct-29 17:30N 37°52' W 122°29'0 0.0
2017-Oct-29 17:00N 37°52' W 122°29'0 0.0
2017-Oct-29 16:30N 37°52' W 122°29'0 0.0
2017-Oct-29 16:00N 37°52' W 122°29'0 0.0
2017-Oct-29 15:30N 37°52' W 122°29'0 0.0
2017-Oct-29 15:00N 37°52' W 122°29'0 0.0
2017-Oct-29 14:30N 37°52' W 122°29'0 0.0
2017-Oct-29 14:00N 37°52' W 122°29'0 0.0
2017-Oct-29 13:30N 37°52' W 122°29'0 0.0
2017-Oct-29 13:00N 37°52' W 122°29'0 0.0
2017-Oct-29 12:30N 37°52' W 122°29'0 0.0
2017-Oct-29 12:00N 37°52' W 122°29'0 0.0
2017-Oct-29 11:30N 37°52' W 122°29'0 0.0
2017-Oct-29 11:00N 37°52' W 122°29'0 0.0
2017-Oct-29 10:30N 37°52' W 122°29'0 0.0
2017-Oct-29 10:00N 37°52' W 122°29'0 0.0
2017-Oct-29 09:30N 37°52' W 122°29'0 0.0
2017-Oct-29 09:00N 37°52' W 122°29'0 0.0
2017-Oct-29 08:30N 37°52' W 122°29'0 0.0
2017-Oct-29 08:00N 37°52' W 122°29'0 0.0
2017-Oct-29 07:30N 37°52' W 122°29'0 0.0
2017-Oct-29 07:00N 37°52' W 122°29'0 0.0
2017-Oct-29 06:30N 37°52' W 122°29'0 0.0
2017-Oct-29 06:00N 37°52' W 122°29'0 0.0
2017-Oct-29 05:30N 37°52' W 122°29'0 0.0
2017-Oct-29 05:00N 37°52' W 122°29'0 0.0
2017-Oct-29 04:30N 37°52' W 122°29'0 0.0
2017-Oct-29 04:00N 37°52' W 122°29'0 0.0
2017-Oct-28 19:00N 37°52' W 122°29'0 0.0
2017-Oct-28 18:30N 37°52' W 122°29'0 0.0
2017-Oct-28 18:00N 37°52' W 122°29'0 0.0
2017-Oct-28 17:30N 37°52' W 122°29'0 0.0
2017-Oct-28 17:00N 37°52' W 122°29'0 0.0
2017-Oct-28 16:30N 37°52' W 122°29'  
Track history (hours):
 
Tides and Currents Weather Stations Pressure Air Temp Water Temp Dewpoint Dewpoint Depression Visibility Wind Speed Wind Dir Waves Ship Positions

Elisa

Last reported at 2017-Nov-07 16:21 UTC. Time now 2017-Nov-20 12:00 UTC.
Position N 32°37' W 117°16'.
Warning: this ship's position is 12 days out of date.

Length 46 m; draft 2.6 m.

Type: Pleasure craft. MMSI: 538070502.

Date/timePositionNaut miles runAvg speedWind from/ knotsBaromVisibWave heightAir tempDewpointWater temp
2017-Nov-07 16:21N 32°37' W 117°16'511.8
2017-Nov-07 15:56N 32°40' W 117°20'4 9.8
2017-Nov-07 15:30N 32°43' W 117°23'5 9.8
2017-Nov-07 15:00N 32°47' W 117°27'5 9.3
2017-Nov-07 14:30N 32°50' W 117°31'5 9.2
2017-Nov-07 14:00N 32°53' W 117°35'5 9.2
2017-Nov-07 13:30N 32°56' W 117°39'5 9.6
2017-Nov-07 13:00N 32°60' W 117°43'5 9.7
2017-Nov-07 12:30N 33°03' W 117°47'5 9.7
2017-Nov-07 12:00N 33°07' W 117°51'5 9.5
2017-Nov-07 11:30N 33°10' W 117°55'5 9.6
2017-Nov-07 10:59N 33°13' W 117°60'5 9.7
2017-Nov-07 10:30N 33°17' W 118°04'56 9.5
2017-Nov-07 04:34N 33°53' W 118°56'210.0
2017-Nov-07 04:22N 33°54' W 118°58'410.1
2017-Nov-07 04:00N 33°55' W 119°02'510.0
2017-Nov-07 03:30N 33°58' W 119°07'510.1
2017-Nov-07 03:00N 34°00' W 119°12'510.7
2017-Nov-07 02:30N 34°03' W 119°18'611.4
2017-Nov-07 02:00N 34°04' W 119°25'611.3
2017-Nov-07 01:30N 34°06' W 119°31'511.1
2017-Nov-07 01:00N 34°07' W 119°38'611.1
2017-Nov-07 00:30N 34°09' W 119°44'511.1
2017-Nov-07 00:00N 34°10' W 119°51'611.5
2017-Nov-06 23:30N 34°12' W 119°57'611.1
2017-Nov-06 23:00N 34°13' W 120°04'511.0
2017-Nov-06 22:30N 34°15' W 120°10'610.8
2017-Nov-06 21:55N 34°16' W 120°18'410.5
2017-Nov-06 21:30N 34°17' W 120°23'510.8
2017-Nov-06 21:00N 34°18' W 120°29'611.0
2017-Nov-06 20:30N 34°20' W 120°36'20511.0
2017-Nov-06 01:49N 37°17' W 122°43'411.6
2017-Nov-06 01:29N 37°20' W 122°43'611.7
2017-Nov-06 01:00N 37°26' W 122°43'611.6
2017-Nov-06 00:30N 37°32' W 122°43'1311.2
2017-Nov-05 23:19N 37°45' W 122°39'512.4
2017-Nov-05 22:57N 37°47' W 122°34'613.5
2017-Nov-05 22:30N 37°50' W 122°28'2 4.0
2017-Nov-05 22:00N 37°52' W 122°29'0 0.0
2017-Nov-05 21:30N 37°52' W 122°29'0 0.0
2017-Nov-05 21:00N 37°52' W 122°29'0 0.0
2017-Nov-05 20:30N 37°52' W 122°29'0 0.0
2017-Nov-05 20:00N 37°52' W 122°29'0 0.0
2017-Nov-05 19:30N 37°52' W 122°29'0 0.0
2017-Nov-05 19:00N 37°52' W 122°29'0 0.0
2017-Nov-05 18:30N 37°52' W 122°29'0 0.0
2017-Nov-05 18:00N 37°52' W 122°29'0 0.0
2017-Nov-05 17:30N 37°52' W 122°29'0 0.0
2017-Nov-05 17:00N 37°52' W 122°29'0 0.0
2017-Nov-05 16:30N 37°52' W 122°29'0 0.0
2017-Nov-05 16:00N 37°52' W 122°29'0 0.0
2017-Nov-05 15:30N 37°52' W 122°29'0 0.0
2017-Nov-05 15:00N 37°52' W 122°29'0 0.0
2017-Nov-05 14:30N 37°52' W 122°29'0 0.0
2017-Nov-05 14:00N 37°52' W 122°29'0 0.0
2017-Nov-05 13:30N 37°52' W 122°29'0 0.0
2017-Nov-05 13:00N 37°52' W 122°29'0 0.0
2017-Nov-05 12:30N 37°52' W 122°29'0 0.0
2017-Nov-05 12:00N 37°52' W 122°29'0 0.0
2017-Nov-05 11:30N 37°52' W 122°29'0 0.0
2017-Nov-05 11:00N 37°52' W 122°29'0 0.0
2017-Nov-05 10:30N 37°52' W 122°29'0 0.0
2017-Nov-05 10:00N 37°52' W 122°29'0 0.0
2017-Nov-05 09:30N 37°52' W 122°29'0 0.0
2017-Nov-05 09:00N 37°52' W 122°29'0 0.0
2017-Nov-05 08:30N 37°52' W 122°29'0 0.0
2017-Nov-05 08:00N 37°52' W 122°29'0 0.0
2017-Nov-05 07:30N 37°52' W 122°29'0 0.0
2017-Nov-05 07:00N 37°52' W 122°29'0 0.0
2017-Nov-05 06:30N 37°52' W 122°29'0 0.0
2017-Nov-05 06:00N 37°52' W 122°29'0 0.0
2017-Nov-05 05:30N 37°52' W 122°29'0 0.0
2017-Nov-05 05:00N 37°52' W 122°29'0 0.0
2017-Nov-05 04:30N 37°52' W 122°29'0 0.0
2017-Nov-05 04:00N 37°52' W 122°29'0 0.0
2017-Nov-05 03:30N 37°52' W 122°29'0 0.0
2017-Nov-05 03:00N 37°52' W 122°29'0 0.0
2017-Nov-05 02:30N 37°52' W 122°29'0 0.0
2017-Nov-05 02:00N 37°52' W 122°29'0 0.0
2017-Nov-05 01:30N 37°52' W 122°29'0 0.0
2017-Nov-05 01:00N 37°52' W 122°29'0 0.0
2017-Nov-05 00:30N 37°52' W 122°29'0 0.0
2017-Nov-05 00:00N 37°52' W 122°29'0 0.0
2017-Nov-04 23:30N 37°52' W 122°29'0 0.0
2017-Nov-04 23:00N 37°52' W 122°29'0 0.0
2017-Nov-04 22:30N 37°52' W 122°29'0 0.0
2017-Nov-04 22:00N 37°52' W 122°29'0 0.0
2017-Nov-04 21:30N 37°52' W 122°29'0 0.0
2017-Nov-04 21:00N 37°52' W 122°29'0 0.0
2017-Nov-04 20:30N 37°52' W 122°29'0 0.0
2017-Nov-04 20:00N 37°52' W 122°29'0 0.0
2017-Nov-04 19:30N 37°52' W 122°29'0 0.0
2017-Nov-04 19:00N 37°52' W 122°29'0 0.0
2017-Nov-04 18:30N 37°52' W 122°29'0 0.0
2017-Nov-04 18:00N 37°52' W 122°29'0 0.0
2017-Nov-04 17:30N 37°52' W 122°29'0 0.0
2017-Nov-04 17:00N 37°52' W 122°29'0 0.0
2017-Nov-04 16:30N 37°52' W 122°29'0 0.0
2017-Nov-04 16:00N 37°52' W 122°29'0 0.0
2017-Nov-04 15:27N 37°52' W 122°29'0 0.0
2017-Nov-04 15:00N 37°52' W 122°29'0 0.0
2017-Nov-04 14:30N 37°52' W 122°29'0 0.0
2017-Nov-04 14:00N 37°52' W 122°29'0 0.0
2017-Nov-04 13:30N 37°52' W 122°29'0 0.0
2017-Nov-04 13:00N 37°52' W 122°29'0 0.0
2017-Nov-04 12:30N 37°52' W 122°29'0 0.0
2017-Nov-04 12:00N 37°52' W 122°29'0 0.0
2017-Nov-04 11:30N 37°52' W 122°29'0 0.0
2017-Nov-04 11:00N 37°52' W 122°29'0 0.0
2017-Nov-04 10:30N 37°52' W 122°29'0 0.0
2017-Nov-04 10:00N 37°52' W 122°29'0 0.0
2017-Nov-04 09:30N 37°52' W 122°29'0 0.0
2017-Nov-04 09:00N 37°52' W 122°29'0 0.0
2017-Nov-04 08:30N 37°52' W 122°29'0 0.0
2017-Nov-04 08:00N 37°52' W 122°29'0 0.0
2017-Nov-04 07:30N 37°52' W 122°29'0 0.0
2017-Nov-04 07:00N 37°52' W 122°29'0 0.0
2017-Nov-04 06:30N 37°52' W 122°29'0 0.0
2017-Nov-04 06:00N 37°52' W 122°29'0 0.0
2017-Nov-04 05:30N 37°52' W 122°29'0 0.0
2017-Nov-04 05:00N 37°52' W 122°29'0 0.0
2017-Nov-04 04:30N 37°52' W 122°29'0 0.0
2017-Nov-04 04:00N 37°52' W 122°29'0 0.0
2017-Nov-04 03:30N 37°52' W 122°29'0 0.0
2017-Nov-04 03:00N 37°52' W 122°29'0 0.0
2017-Nov-04 02:30N 37°52' W 122°29'0 0.0
2017-Nov-04 02:00N 37°52' W 122°29'0 0.0
2017-Nov-04 01:30N 37°52' W 122°29'0 0.0
2017-Nov-04 01:00N 37°52' W 122°29'0 0.0
2017-Nov-04 00:30N 37°52' W 122°29'0 0.0
2017-Nov-04 00:00N 37°52' W 122°29'0 0.0
2017-Nov-03 23:30N 37°52' W 122°29'0 0.0
2017-Nov-03 23:00N 37°52' W 122°29'0 0.0
2017-Nov-03 22:30N 37°52' W 122°29'0 0.0
2017-Nov-03 22:00N 37°52' W 122°29'0 0.0
2017-Nov-03 21:30N 37°52' W 122°29'0 0.0
2017-Nov-03 21:00N 37°52' W 122°29'0 0.0
2017-Nov-03 20:30N 37°52' W 122°29'0 0.0
2017-Nov-03 20:00N 37°52' W 122°29'0 0.0
2017-Nov-03 19:30N 37°52' W 122°29'0 0.0
2017-Nov-03 19:00N 37°52' W 122°29'0 0.0
2017-Nov-03 18:30N 37°52' W 122°29'0 0.0
2017-Nov-03 18:00N 37°52' W 122°29'0 0.0
2017-Nov-03 17:30N 37°52' W 122°29'0 0.0
2017-Nov-03 17:00N 37°52' W 122°29'0 0.0
2017-Nov-03 16:30N 37°52' W 122°29'0 0.0
2017-Nov-03 16:00N 37°52' W 122°29'0 0.0
2017-Nov-03 15:30N 37°52' W 122°29'0 0.0
2017-Nov-03 15:00N 37°52' W 122°29'0 0.0
2017-Nov-03 14:30N 37°52' W 122°29'0 0.0
2017-Nov-03 14:00N 37°52' W 122°29'0 0.0
2017-Nov-03 13:30N 37°52' W 122°29'0 0.0
2017-Nov-03 13:00N 37°52' W 122°29'0 0.0
2017-Nov-03 12:30N 37°52' W 122°29'0 0.0
2017-Nov-03 12:00N 37°52' W 122°29'0 0.0
2017-Nov-03 11:30N 37°52' W 122°29'0 0.0
2017-Nov-03 11:00N 37°52' W 122°29'0 0.0
2017-Nov-03 10:27N 37°52' W 122°29'0 0.0
2017-Nov-03 10:00N 37°52' W 122°29'0 0.0
2017-Nov-03 09:30N 37°52' W 122°29'0 0.0
2017-Nov-03 09:00N 37°52' W 122°29'0 0.0
2017-Nov-03 08:30N 37°52' W 122°29'0 0.0
2017-Nov-03 08:00N 37°52' W 122°29'0 0.0
2017-Nov-03 07:30N 37°52' W 122°29'0 0.0
2017-Nov-03 07:00N 37°52' W 122°29'0 0.0
2017-Nov-03 06:30N 37°52' W 122°29'0 0.0
2017-Nov-03 06:00N 37°52' W 122°29'0 0.0
2017-Nov-03 05:30N 37°52' W 122°29'0 0.0
2017-Nov-03 05:00N 37°52' W 122°29'0 0.0
2017-Nov-03 04:30N 37°52' W 122°29'0 0.0
2017-Nov-03 04:00N 37°52' W 122°29'0 0.0
2017-Nov-03 03:30N 37°52' W 122°29'0 0.0
2017-Nov-03 03:00N 37°52' W 122°29'0 0.0
2017-Nov-03 02:30N 37°52' W 122°29'0 0.0
2017-Nov-03 02:00N 37°52' W 122°29'0 0.0
2017-Nov-03 01:30N 37°52' W 122°29'0 0.0
2017-Nov-03 01:00N 37°52' W 122°29'0 0.0
2017-Nov-03 00:30N 37°52' W 122°29'0 0.0
2017-Nov-03 00:00N 37°52' W 122°29'0 0.0
2017-Nov-02 23:30N 37°52' W 122°29'0 0.0
2017-Nov-02 23:00N 37°52' W 122°29'0 0.0
2017-Nov-02 22:30N 37°52' W 122°29'0 0.0
2017-Nov-02 22:00N 37°52' W 122°29'0 0.0
2017-Nov-02 21:30N 37°52' W 122°29'0 0.0
2017-Nov-02 21:00N 37°52' W 122°29'0 0.0
2017-Nov-02 20:30N 37°52' W 122°29'0 0.0
2017-Nov-02 20:00N 37°52' W 122°29'0 0.0
2017-Nov-02 19:30N 37°52' W 122°29'0 0.0
2017-Nov-02 19:00N 37°52' W 122°29'0 0.0
2017-Nov-02 18:30N 37°52' W 122°29'0 0.0
2017-Nov-02 18:00N 37°52' W 122°29'0 0.0
2017-Nov-02 17:30N 37°52' W 122°29'0 0.0
2017-Nov-02 17:00N 37°52' W 122°29'0 0.0
2017-Nov-02 16:30N 37°52' W 122°29'0 0.0
2017-Nov-02 16:00N 37°52' W 122°29'0 0.0
2017-Nov-02 15:30N 37°52' W 122°29'0 0.0
2017-Nov-02 14:57N 37°52' W 122°29'0 0.0
2017-Nov-02 14:30N 37°52' W 122°29'0 0.0
2017-Nov-02 14:00N 37°52' W 122°29'0 0.0
2017-Nov-02 13:30N 37°52' W 122°29'0 0.0
2017-Nov-02 13:00N 37°52' W 122°29'0 0.0
2017-Nov-02 12:30N 37°52' W 122°29'0 0.0
2017-Nov-02 12:00N 37°52' W 122°29'0 0.0
2017-Nov-02 11:30N 37°52' W 122°29'0 0.0
2017-Nov-02 11:00N 37°52' W 122°29'0 0.0
2017-Nov-02 10:30N 37°52' W 122°29'0 0.0
2017-Nov-02 10:00N 37°52' W 122°29'0 0.0
2017-Nov-02 09:30N 37°52' W 122°29'0 0.0
2017-Nov-02 09:00N 37°52' W 122°29'0 0.0
2017-Nov-02 08:30N 37°52' W 122°29'0 0.0
2017-Nov-02 08:00N 37°52' W 122°29'0 0.0
2017-Nov-02 07:30N 37°52' W 122°29'0 0.0
2017-Nov-02 07:00N 37°52' W 122°29'0 0.0
2017-Nov-02 06:30N 37°52' W 122°29'0 0.0
2017-Nov-02 06:00N 37°52' W 122°29'0 0.0
2017-Nov-02 05:30N 37°52' W 122°29'0 0.0
2017-Nov-02 05:00N 37°52' W 122°29'0 0.0
2017-Nov-02 04:30N 37°52' W 122°29'0 0.0
2017-Nov-02 04:00N 37°52' W 122°29'0 0.0
2017-Nov-02 03:30N 37°52' W 122°29'0 0.0
2017-Nov-02 03:00N 37°52' W 122°29'0 0.0
2017-Nov-02 02:30N 37°52' W 122°29'0 0.0
2017-Nov-02 02:00N 37°52' W 122°29'0 0.0
2017-Nov-02 01:30N 37°52' W 122°29'0 0.0
2017-Nov-02 01:00N 37°52' W 122°29'0 0.0
2017-Nov-02 00:30N 37°52' W 122°29'0 0.0
2017-Nov-02 00:00N 37°52' W 122°29'0 0.0
2017-Nov-01 23:30N 37°52' W 122°29'0 0.0
2017-Nov-01 23:00N 37°52' W 122°29'0 0.0
2017-Nov-01 22:30N 37°52' W 122°29'0 0.0
2017-Nov-01 22:00N 37°52' W 122°29'0 0.0
2017-Nov-01 21:30N 37°52' W 122°29'0 0.0
2017-Nov-01 21:00N 37°52' W 122°29'0 0.0
2017-Nov-01 20:30N 37°52' W 122°29'0 0.0
2017-Nov-01 20:00N 37°52' W 122°29'0 0.0
2017-Nov-01 19:30N 37°52' W 122°29'0 0.0
2017-Nov-01 19:00N 37°52' W 122°29'0 0.0
2017-Nov-01 18:30N 37°52' W 122°29'0 0.0
2017-Nov-01 02:00N 37°52' W 122°29'0 0.0
2017-Nov-01 01:30N 37°52' W 122°29'0 0.0
2017-Nov-01 01:00N 37°52' W 122°29'0 0.0
2017-Nov-01 00:30N 37°52' W 122°29'0 0.0
2017-Nov-01 00:00N 37°52' W 122°29'0 0.0
2017-Oct-31 23:30N 37°52' W 122°29'0 0.0
2017-Oct-31 23:00N 37°52' W 122°29'0 0.0
2017-Oct-31 22:30N 37°52' W 122°29'0 0.0
2017-Oct-31 21:57N 37°52' W 122°29'0 0.0
2017-Oct-31 21:30N 37°52' W 122°29'0 0.0
2017-Oct-31 21:00N 37°52' W 122°29'0 0.0
2017-Oct-31 20:30N 37°52' W 122°29'0 0.0
2017-Oct-31 20:00N 37°52' W 122°29'0 0.0
2017-Oct-31 19:30N 37°52' W 122°29'0 0.0
2017-Oct-31 19:00N 37°52' W 122°29'0 0.0
2017-Oct-31 18:30N 37°52' W 122°29'0 0.0
2017-Oct-31 18:00N 37°52' W 122°29'0 0.0
2017-Oct-31 17:30N 37°52' W 122°29'0 0.0
2017-Oct-31 17:00N 37°52' W 122°29'0 0.0
2017-Oct-31 16:30N 37°52' W 122°29'0 0.0
2017-Oct-31 16:00N 37°52' W 122°29'0 0.0
2017-Oct-31 15:30N 37°52' W 122°29'0 0.0
2017-Oct-31 15:00N 37°52' W 122°29'0 0.0
2017-Oct-31 14:30N 37°52' W 122°29'0 0.0
2017-Oct-31 14:00N 37°52' W 122°29'0 0.0
2017-Oct-31 13:30N 37°52' W 122°29'0 0.0
2017-Oct-31 13:00N 37°52' W 122°29'0 0.0
2017-Oct-31 12:30N 37°52' W 122°29'0 0.0
2017-Oct-31 12:00N 37°52' W 122°29'0 0.0
2017-Oct-31 11:30N 37°52' W 122°29'0 0.0
2017-Oct-31 11:00N 37°52' W 122°29'0 0.0
2017-Oct-31 10:30N 37°52' W 122°29'0 0.0
2017-Oct-31 10:00N 37°52' W 122°29'0 0.0
2017-Oct-31 09:30N 37°52' W 122°29'0 0.0
2017-Oct-31 09:00N 37°52' W 122°29'0 0.0
2017-Oct-31 08:30N 37°52' W 122°29'0 0.0
2017-Oct-31 08:00N 37°52' W 122°29'0 0.0
2017-Oct-31 07:30N 37°52' W 122°29'0 0.0
2017-Oct-31 07:00N 37°52' W 122°29'0 0.0
2017-Oct-31 06:30N 37°52' W 122°29'0 0.0
2017-Oct-31 06:00N 37°52' W 122°29'0 0.0
2017-Oct-31 05:30N 37°52' W 122°29'0 0.0
2017-Oct-31 05:00N 37°52' W 122°29'0 0.0
2017-Oct-31 04:30N 37°52' W 122°29'0 0.0
2017-Oct-31 04:00N 37°52' W 122°29'0 0.0
2017-Oct-31 03:30N 37°52' W 122°29'0 0.0
2017-Oct-31 03:00N 37°52' W 122°29'0 0.0
2017-Oct-31 02:30N 37°52' W 122°29'0 0.0
2017-Oct-31 02:00N 37°52' W 122°29'0 0.0
2017-Oct-31 01:30N 37°52' W 122°29'0 0.0
2017-Oct-31 01:00N 37°52' W 122°29'0 0.0
2017-Oct-31 00:30N 37°52' W 122°29'0 0.0
2017-Oct-31 00:00N 37°52' W 122°29'0 0.0
2017-Oct-30 23:30N 37°52' W 122°29'0 0.0
2017-Oct-30 23:00N 37°52' W 122°29'0 0.0
2017-Oct-30 22:30N 37°52' W 122°29'0 0.0
2017-Oct-30 22:00N 37°52' W 122°29'0 0.0
2017-Oct-30 21:30N 37°52' W 122°29'0 0.0
2017-Oct-30 21:00N 37°52' W 122°29'0 0.0
2017-Oct-30 20:30N 37°52' W 122°29'0 0.0
2017-Oct-30 20:00N 37°52' W 122°29'0 0.0
2017-Oct-30 19:30N 37°52' W 122°29'0 0.0
2017-Oct-30 19:00N 37°52' W 122°29'0 0.0
2017-Oct-30 18:30N 37°52' W 122°29'0 0.0
2017-Oct-30 18:00N 37°52' W 122°29'0 0.0
2017-Oct-30 17:30N 37°52' W 122°29'0 0.0
2017-Oct-30 17:00N 37°52' W 122°29'0 0.0
2017-Oct-30 16:30N 37°52' W 122°29'0 0.0
2017-Oct-30 16:00N 37°52' W 122°29'0 0.0
2017-Oct-30 15:30N 37°52' W 122°29'0 0.0
2017-Oct-30 15:00N 37°52' W 122°29'0 0.0
2017-Oct-30 14:00N 37°52' W 122°29'0 0.0
2017-Oct-30 13:30N 37°52' W 122°29'0 0.0
2017-Oct-30 13:00N 37°52' W 122°29'0 0.0
2017-Oct-30 12:30N 37°52' W 122°29'0 0.0
2017-Oct-30 12:00N 37°52' W 122°29'0 0.0
2017-Oct-30 11:30N 37°52' W 122°29'0 0.0
2017-Oct-30 11:00N 37°52' W 122°29'0 0.0
2017-Oct-30 10:30N 37°52' W 122°29'0 0.0
2017-Oct-30 09:57N 37°52' W 122°29'0 0.0
2017-Oct-30 09:30N 37°52' W 122°29'0 0.0
2017-Oct-30 09:00N 37°52' W 122°29'0 0.0
2017-Oct-30 08:30N 37°52' W 122°29'0 0.0
2017-Oct-30 08:00N 37°52' W 122°29'0 0.0
2017-Oct-30 07:30N 37°52' W 122°29'0 0.0
2017-Oct-30 07:00N 37°52' W 122°29'0 0.0
2017-Oct-30 06:30N 37°52' W 122°29'0 0.0
2017-Oct-30 06:00N 37°52' W 122°29'0 0.0
2017-Oct-30 05:30N 37°52' W 122°29'0 0.0
2017-Oct-30 05:00N 37°52' W 122°29'0 0.0
2017-Oct-30 04:30N 37°52' W 122°29'0 0.0
2017-Oct-30 04:00N 37°52' W 122°29'0 0.0
2017-Oct-30 03:30N 37°52' W 122°29'0 0.0
2017-Oct-30 03:00N 37°52' W 122°29'0 0.0
2017-Oct-30 02:30N 37°52' W 122°29'0 0.0
2017-Oct-30 02:00N 37°52' W 122°29'0 0.0
2017-Oct-30 01:30N 37°52' W 122°29'0 0.0
2017-Oct-30 01:00N 37°52' W 122°29'0 0.0
2017-Oct-30 00:27N 37°52' W 122°29'0 0.0
2017-Oct-30 00:00N 37°52' W 122°29'0 0.0
2017-Oct-29 23:30N 37°52' W 122°29'0 0.0
2017-Oct-29 23:00N 37°52' W 122°29'0 0.0
2017-Oct-29 22:30N 37°52' W 122°29'0 0.0
2017-Oct-29 22:00N 37°52' W 122°29'0 0.0
2017-Oct-29 21:30N 37°52' W 122°29'0 0.0
2017-Oct-29 21:00N 37°52' W 122°29'0 0.0
2017-Oct-29 20:30N 37°52' W 122°29'0 0.0
2017-Oct-29 20:00N 37°52' W 122°29'0 0.0
2017-Oct-29 19:30N 37°52' W 122°29'0 0.0
2017-Oct-29 19:00N 37°52' W 122°29'0 0.0
2017-Oct-29 18:30N 37°52' W 122°29'0 0.0
2017-Oct-29 18:00N 37°52' W 122°29'0 0.0
2017-Oct-29 17:30N 37°52' W 122°29'0 0.0
2017-Oct-29 17:00N 37°52' W 122°29'0 0.0
2017-Oct-29 16:30N 37°52' W 122°29'0 0.0
2017-Oct-29 16:00N 37°52' W 122°29'0 0.0
2017-Oct-29 15:30N 37°52' W 122°29'0 0.0
2017-Oct-29 15:00N 37°52' W 122°29'0 0.0
2017-Oct-29 14:30N 37°52' W 122°29'0 0.0
2017-Oct-29 14:00N 37°52' W 122°29'0 0.0
2017-Oct-29 13:30N 37°52' W 122°29'0 0.0
2017-Oct-29 13:00N 37°52' W 122°29'0 0.0
2017-Oct-29 12:30N 37°52' W 122°29'0 0.0
2017-Oct-29 12:00N 37°52' W 122°29'0 0.0
2017-Oct-29 11:30N 37°52' W 122°29'0 0.0
2017-Oct-29 11:00N 37°52' W 122°29'0 0.0
2017-Oct-29 10:30N 37°52' W 122°29'0 0.0
2017-Oct-29 10:00N 37°52' W 122°29'0 0.0
2017-Oct-29 09:30N 37°52' W 122°29'0 0.0
2017-Oct-29 09:00N 37°52' W 122°29'0 0.0
2017-Oct-29 08:30N 37°52' W 122°29'0 0.0
2017-Oct-29 08:00N 37°52' W 122°29'0 0.0
2017-Oct-29 07:30N 37°52' W 122°29'0 0.0
2017-Oct-29 07:00N 37°52' W 122°29'0 0.0
2017-Oct-29 06:30N 37°52' W 122°29'0 0.0
2017-Oct-29 06:00N 37°52' W 122°29'0 0.0
2017-Oct-29 05:30N 37°52' W 122°29'0 0.0
2017-Oct-29 05:00N 37°52' W 122°29'0 0.0
2017-Oct-29 04:30N 37°52' W 122°29'0 0.0
2017-Oct-29 04:00N 37°52' W 122°29'0 0.0
2017-Oct-28 19:00N 37°52' W 122°29'0 0.0
2017-Oct-28 18:30N 37°52' W 122°29'0 0.0
2017-Oct-28 18:00N 37°52' W 122°29'0 0.0
2017-Oct-28 17:30N 37°52' W 122°29'0 0.0
2017-Oct-28 17:00N 37°52' W 122°29'0 0.0
2017-Oct-28 16:30N 37°52' W 122°29'  

Dump ship's entire track history